sensor_id;sensor_type;location;lat;lon;timestamp;pressure;altitude;pressure_sealevel;temperature;humidity
61814;BME280;57055;-35.296;149.168;2023-02-07T00:01:36;95224.47;;;21.69;52.14
61814;BME280;57055;-35.296;149.168;2023-02-07T00:04:04;95225.83;;;21.48;52.21
61814;BME280;57055;-35.296;149.168;2023-02-07T00:06:35;95222.22;;;21.56;53.02
61814;BME280;57055;-35.296;149.168;2023-02-07T00:09:07;95221.22;;;21.66;52.61
61814;BME280;57055;-35.296;149.168;2023-02-07T00:11:37;95215.98;;;21.67;52.64
61814;BME280;57055;-35.296;149.168;2023-02-07T00:14:08;95209.76;;;21.90;51.65
61814;BME280;57055;-35.296;149.168;2023-02-07T00:16:38;95208.19;;;22.16;51.90
61814;BME280;57055;-35.296;149.168;2023-02-07T00:19:07;95203.51;;;21.98;52.23
61814;BME280;57055;-35.296;149.168;2023-02-07T00:21:37;95200.48;;;22.05;51.60
61814;BME280;57055;-35.296;149.168;2023-02-07T00:24:06;95198.21;;;22.07;51.40
61814;BME280;57055;-35.296;149.168;2023-02-07T00:26:35;95195.20;;;22.18;51.30
61814;BME280;57055;-35.296;149.168;2023-02-07T00:29:04;95197.19;;;22.22;51.29
61814;BME280;57055;-35.296;149.168;2023-02-07T00:31:35;95196.38;;;22.22;51.15
61814;BME280;57055;-35.296;149.168;2023-02-07T00:34:06;95193.57;;;22.16;50.81
61814;BME280;57055;-35.296;149.168;2023-02-07T00:36:36;95184.82;;;22.29;50.55
61814;BME280;57055;-35.296;149.168;2023-02-07T00:39:07;95182.35;;;22.35;50.33
61814;BME280;57055;-35.296;149.168;2023-02-07T00:41:36;95177.35;;;22.77;49.69
61814;BME280;57055;-35.296;149.168;2023-02-07T00:44:05;95182.46;;;23.05;49.02
61814;BME280;57055;-35.296;149.168;2023-02-07T00:46:35;95175.90;;;23.01;49.05
61814;BME280;57055;-35.296;149.168;2023-02-07T00:49:05;95174.46;;;22.83;48.93
61814;BME280;57055;-35.296;149.168;2023-02-07T00:51:34;95171.06;;;22.79;48.80
61814;BME280;57055;-35.296;149.168;2023-02-07T00:54:03;95168.14;;;22.86;48.71
61814;BME280;57055;-35.296;149.168;2023-02-07T00:56:33;95160.99;;;23.09;46.93
61814;BME280;57055;-35.296;149.168;2023-02-07T00:59:02;95153.67;;;23.12;47.68
61814;BME280;57055;-35.296;149.168;2023-02-07T01:01:31;95148.73;;;23.16;47.79
61814;BME280;57055;-35.296;149.168;2023-02-07T01:04:01;95144.94;;;22.99;47.28
61814;BME280;57055;-35.296;149.168;2023-02-07T01:06:30;95140.59;;;22.88;46.30
61814;BME280;57055;-35.296;149.168;2023-02-07T01:09:00;95138.64;;;22.65;47.25
61814;BME280;57055;-35.296;149.168;2023-02-07T01:11:30;95140.11;;;22.66;47.92
61814;BME280;57055;-35.296;149.168;2023-02-07T01:13:59;95133.91;;;22.77;47.40
61814;BME280;57055;-35.296;149.168;2023-02-07T01:16:30;95128.24;;;23.00;46.41
61814;BME280;57055;-35.296;149.168;2023-02-07T01:19:02;95122.18;;;23.11;45.56
61814;BME280;57055;-35.296;149.168;2023-02-07T01:21:32;95120.05;;;23.81;44.88
61814;BME280;57055;-35.296;149.168;2023-02-07T01:24:01;95114.23;;;23.82;45.45
61814;BME280;57055;-35.296;149.168;2023-02-07T01:26:30;95106.69;;;24.21;44.88
61814;BME280;57055;-35.296;149.168;2023-02-07T01:28:59;95107.61;;;23.94;44.60
61814;BME280;57055;-35.296;149.168;2023-02-07T01:31:28;95100.72;;;24.04;44.35
61814;BME280;57055;-35.296;149.168;2023-02-07T01:33:58;95104.50;;;24.06;44.72
61814;BME280;57055;-35.296;149.168;2023-02-07T01:36:29;95101.38;;;24.03;42.99
61814;BME280;57055;-35.296;149.168;2023-02-07T01:38:59;95096.62;;;24.44;42.32
61814;BME280;57055;-35.296;149.168;2023-02-07T01:41:28;95093.51;;;23.97;42.29
61814;BME280;57055;-35.296;149.168;2023-02-07T01:44:00;95093.14;;;24.15;42.65
61814;BME280;57055;-35.296;149.168;2023-02-07T01:46:31;95091.63;;;23.88;43.29
61814;BME280;57055;-35.296;149.168;2023-02-07T01:49:04;95092.05;;;24.02;43.49
61814;BME280;57055;-35.296;149.168;2023-02-07T01:51:35;95082.24;;;24.16;44.22
61814;BME280;57055;-35.296;149.168;2023-02-07T01:54:07;95088.50;;;23.95;43.82
61814;BME280;57055;-35.296;149.168;2023-02-07T01:56:41;95086.77;;;23.59;44.16
61814;BME280;57055;-35.296;149.168;2023-02-07T01:59:11;95079.58;;;24.06;44.24
61814;BME280;57055;-35.296;149.168;2023-02-07T02:01:42;95077.34;;;23.94;44.11
61814;BME280;57055;-35.296;149.168;2023-02-07T02:04:11;95081.79;;;24.28;43.49
61814;BME280;57055;-35.296;149.168;2023-02-07T02:06:41;95079.58;;;24.28;43.30
61814;BME280;57055;-35.296;149.168;2023-02-07T02:09:13;95072.22;;;24.72;42.74
61814;BME280;57055;-35.296;149.168;2023-02-07T02:11:56;95070.34;;;24.71;41.93
61814;BME280;57055;-35.296;149.168;2023-02-07T02:14:44;95067.11;;;24.69;42.75
61814;BME280;57055;-35.296;149.168;2023-02-07T02:17:26;95061.84;;;25.10;40.93
61814;BME280;57055;-35.296;149.168;2023-02-07T02:20:16;95059.59;;;24.76;41.77
61814;BME280;57055;-35.296;149.168;2023-02-07T02:22:59;95058.72;;;24.81;42.18
61814;BME280;57055;-35.296;149.168;2023-02-07T02:25:56;95051.98;;;25.28;42.02
61814;BME280;57055;-35.296;149.168;2023-02-07T02:30:36;95044.76;;;25.57;40.09
61814;BME280;57055;-35.296;149.168;2023-02-07T02:33:24;95039.68;;;25.09;40.10
61814;BME280;57055;-35.296;149.168;2023-02-07T02:36:04;95033.74;;;25.32;40.54
61814;BME280;57055;-35.296;149.168;2023-02-07T02:38:41;95029.06;;;25.59;39.31
61814;BME280;57055;-35.296;149.168;2023-02-07T02:41:17;95023.10;;;25.51;39.00
61814;BME280;57055;-35.296;149.168;2023-02-07T02:43:52;95016.78;;;25.88;38.89
61814;BME280;57055;-35.296;149.168;2023-02-07T02:46:24;95018.66;;;25.96;39.26
61814;BME280;57055;-35.296;149.168;2023-02-07T02:48:56;95012.60;;;25.58;39.62
61814;BME280;57055;-35.296;149.168;2023-02-07T02:51:28;95010.91;;;25.93;38.64
61814;BME280;57055;-35.296;149.168;2023-02-07T02:53:58;95008.41;;;25.71;38.69
61814;BME280;57055;-35.296;149.168;2023-02-07T02:56:43;95008.04;;;25.43;38.28
61814;BME280;57055;-35.296;149.168;2023-02-07T02:59:35;95006.77;;;25.69;38.28
61814;BME280;57055;-35.296;149.168;2023-02-07T03:02:20;95003.99;;;25.40;38.67
61814;BME280;57055;-35.296;149.168;2023-02-07T03:05:02;94999.12;;;25.68;38.66
61814;BME280;57055;-35.296;149.168;2023-02-07T03:07:44;94989.22;;;25.78;38.00
61814;BME280;57055;-35.296;149.168;2023-02-07T03:10:22;94985.83;;;25.79;38.30
61814;BME280;57055;-35.296;149.168;2023-02-07T03:13:01;94983.08;;;25.75;38.30
61814;BME280;57055;-35.296;149.168;2023-02-07T03:15:39;94984.49;;;25.86;37.98
61814;BME280;57055;-35.296;149.168;2023-02-07T03:18:15;94983.51;;;25.44;38.49
61814;BME280;57055;-35.296;149.168;2023-02-07T03:20:51;94982.20;;;25.92;37.39
61814;BME280;57055;-35.296;149.168;2023-02-07T03:23:21;94976.25;;;26.07;36.80
61814;BME280;57055;-35.296;149.168;2023-02-07T03:25:51;94971.71;;;26.19;36.92
61814;BME280;57055;-35.296;149.168;2023-02-07T03:28:22;94970.37;;;25.86;36.82
61814;BME280;57055;-35.296;149.168;2023-02-07T03:30:54;94969.64;;;26.43;36.58
61814;BME280;57055;-35.296;149.168;2023-02-07T03:33:25;94969.10;;;26.37;36.85
61814;BME280;57055;-35.296;149.168;2023-02-07T03:35:59;94966.63;;;26.36;36.05
61814;BME280;57055;-35.296;149.168;2023-02-07T03:38:30;94964.51;;;26.02;36.19
61814;BME280;57055;-35.296;149.168;2023-02-07T03:41:04;94965.61;;;26.26;36.24
61814;BME280;57055;-35.296;149.168;2023-02-07T03:43:38;94962.95;;;26.33;35.81
61814;BME280;57055;-35.296;149.168;2023-02-07T03:46:08;94959.87;;;26.13;35.61
61814;BME280;57055;-35.296;149.168;2023-02-07T03:48:37;94951.85;;;26.69;35.28
61814;BME280;57055;-35.296;149.168;2023-02-07T03:51:07;94943.04;;;26.54;34.11
61814;BME280;57055;-35.296;149.168;2023-02-07T03:53:36;94938.87;;;26.80;33.02
61814;BME280;57055;-35.296;149.168;2023-02-07T03:56:06;94934.44;;;26.48;32.81
61814;BME280;57055;-35.296;149.168;2023-02-07T03:58:34;94928.27;;;26.80;32.71
61814;BME280;57055;-35.296;149.168;2023-02-07T04:01:04;94924.74;;;26.45;33.80
61814;BME280;57055;-35.296;149.168;2023-02-07T04:03:33;94925.07;;;26.67;34.03
61814;BME280;57055;-35.296;149.168;2023-02-07T04:06:02;94923.32;;;26.83;32.82
61814;BME280;57055;-35.296;149.168;2023-02-07T04:08:32;94921.62;;;26.89;33.34
61814;BME280;57055;-35.296;149.168;2023-02-07T04:11:02;94916.45;;;26.66;32.66
61814;BME280;57055;-35.296;149.168;2023-02-07T04:13:31;94916.81;;;26.59;32.84
61814;BME280;57055;-35.296;149.168;2023-02-07T04:16:01;94913.64;;;26.63;33.95
61814;BME280;57055;-35.296;149.168;2023-02-07T04:18:30;94916.56;;;27.12;34.24
61814;BME280;57055;-35.296;149.168;2023-02-07T04:21:04;94911.66;;;26.73;33.75
61814;BME280;57055;-35.296;149.168;2023-02-07T04:23:33;94906.99;;;26.68;32.70
61814;BME280;57055;-35.296;149.168;2023-02-07T04:26:02;94903.26;;;26.69;34.69
61814;BME280;57055;-35.296;149.168;2023-02-07T04:28:31;94899.01;;;26.55;35.13
61814;BME280;57055;-35.296;149.168;2023-02-07T04:31:00;94899.98;;;26.27;35.58
61814;BME280;57055;-35.296;149.168;2023-02-07T04:33:30;94901.23;;;26.64;35.29
61814;BME280;57055;-35.296;149.168;2023-02-07T04:36:01;94904.03;;;26.98;34.30
61814;BME280;57055;-35.296;149.168;2023-02-07T04:38:30;94899.23;;;26.69;34.12
61814;BME280;57055;-35.296;149.168;2023-02-07T04:41:01;94900.49;;;26.72;33.63
61814;BME280;57055;-35.296;149.168;2023-02-07T04:43:30;94896.42;;;26.83;33.35
61814;BME280;57055;-35.296;149.168;2023-02-07T04:46:01;94895.65;;;26.64;33.67
61814;BME280;57055;-35.296;149.168;2023-02-07T04:48:30;94892.59;;;26.97;32.65
61814;BME280;57055;-35.296;149.168;2023-02-07T04:50:59;94888.79;;;26.96;32.39
61814;BME280;57055;-35.296;149.168;2023-02-07T04:53:29;94883.80;;;27.15;31.99
61814;BME280;57055;-35.296;149.168;2023-02-07T04:55:58;94882.83;;;27.22;32.15
61814;BME280;57055;-35.296;149.168;2023-02-07T04:58:27;94883.12;;;27.07;32.69
61814;BME280;57055;-35.296;149.168;2023-02-07T05:00:56;94878.65;;;26.88;31.92
61814;BME280;57055;-35.296;149.168;2023-02-07T05:03:26;94875.16;;;26.88;34.94
61814;BME280;57055;-35.296;149.168;2023-02-07T05:05:55;94875.92;;;26.49;36.81
61814;BME280;57055;-35.296;149.168;2023-02-07T05:08:24;94863.79;;;26.54;36.90
61814;BME280;57055;-35.296;149.168;2023-02-07T05:10:55;94861.47;;;26.41;36.47
61814;BME280;57055;-35.296;149.168;2023-02-07T05:13:24;94861.61;;;26.43;36.51
61814;BME280;57055;-35.296;149.168;2023-02-07T05:15:53;94860.84;;;26.54;37.17
61814;BME280;57055;-35.296;149.168;2023-02-07T05:18:22;94863.00;;;26.60;36.72
61814;BME280;57055;-35.296;149.168;2023-02-07T05:20:53;94863.17;;;26.66;36.72
61814;BME280;57055;-35.296;149.168;2023-02-07T05:23:22;94856.24;;;26.04;37.38
61814;BME280;57055;-35.296;149.168;2023-02-07T05:25:51;94850.66;;;26.10;37.29
61814;BME280;57055;-35.296;149.168;2023-02-07T05:28:20;94849.20;;;26.03;38.20
61814;BME280;57055;-35.296;149.168;2023-02-07T05:30:52;94845.63;;;26.26;38.68
61814;BME280;57055;-35.296;149.168;2023-02-07T05:33:22;94850.46;;;25.73;40.02
61814;BME280;57055;-35.296;149.168;2023-02-07T05:35:51;94851.14;;;25.63;40.71
61814;BME280;57055;-35.296;149.168;2023-02-07T05:38:20;94845.73;;;25.44;40.43
61814;BME280;57055;-35.296;149.168;2023-02-07T05:40:49;94843.93;;;25.20;40.72
61814;BME280;57055;-35.296;149.168;2023-02-07T05:43:19;94844.14;;;25.49;40.68
61814;BME280;57055;-35.296;149.168;2023-02-07T05:45:49;94842.45;;;25.27;40.51
61814;BME280;57055;-35.296;149.168;2023-02-07T05:48:18;94840.40;;;25.20;40.23
61814;BME280;57055;-35.296;149.168;2023-02-07T05:50:47;94837.51;;;24.99;40.56
61814;BME280;57055;-35.296;149.168;2023-02-07T05:53:16;94841.17;;;25.06;40.71
61814;BME280;57055;-35.296;149.168;2023-02-07T05:55:45;94839.53;;;25.38;40.46
61814;BME280;57055;-35.296;149.168;2023-02-07T05:58:15;94841.39;;;25.22;41.31
61814;BME280;57055;-35.296;149.168;2023-02-07T06:00:43;94839.60;;;24.84;41.24
61814;BME280;57055;-35.296;149.168;2023-02-07T06:03:13;94838.13;;;25.29;40.87
61814;BME280;57055;-35.296;149.168;2023-02-07T06:05:42;94842.82;;;25.36;41.57
61814;BME280;57055;-35.296;149.168;2023-02-07T06:08:11;94837.73;;;24.99;41.79
61814;BME280;57055;-35.296;149.168;2023-02-07T06:10:40;94841.42;;;24.95;41.91
61814;BME280;57055;-35.296;149.168;2023-02-07T06:13:09;94839.59;;;25.33;41.68
61814;BME280;57055;-35.296;149.168;2023-02-07T06:15:38;94838.63;;;25.00;42.23
61814;BME280;57055;-35.296;149.168;2023-02-07T06:18:06;94843.49;;;25.35;42.03
61814;BME280;57055;-35.296;149.168;2023-02-07T06:20:36;94852.01;;;25.13;41.38
61814;BME280;57055;-35.296;149.168;2023-02-07T06:23:05;94847.97;;;24.93;41.54
61814;BME280;57055;-35.296;149.168;2023-02-07T06:25:34;94850.40;;;24.98;42.04
61814;BME280;57055;-35.296;149.168;2023-02-07T06:28:04;94849.05;;;24.83;42.07
61814;BME280;57055;-35.296;149.168;2023-02-07T06:30:33;94851.76;;;24.97;42.09
61814;BME280;57055;-35.296;149.168;2023-02-07T06:33:02;94851.13;;;25.16;42.87
61814;BME280;57055;-35.296;149.168;2023-02-07T06:35:31;94850.05;;;24.78;42.58
61814;BME280;57055;-35.296;149.168;2023-02-07T06:38:01;94849.48;;;24.78;42.71
61814;BME280;57055;-35.296;149.168;2023-02-07T06:40:30;94846.16;;;24.63;42.62
61814;BME280;57055;-35.296;149.168;2023-02-07T06:42:59;94860.36;;;24.64;42.89
61814;BME280;57055;-35.296;149.168;2023-02-07T06:45:28;94858.19;;;24.87;43.43
61814;BME280;57055;-35.296;149.168;2023-02-07T06:47:57;94857.26;;;24.62;43.43
61814;BME280;57055;-35.296;149.168;2023-02-07T06:50:27;94857.29;;;24.59;43.56
61814;BME280;57055;-35.296;149.168;2023-02-07T06:52:56;94860.77;;;25.04;43.37
61814;BME280;57055;-35.296;149.168;2023-02-07T06:55:25;94878.45;;;24.66;43.29
61814;BME280;57055;-35.296;149.168;2023-02-07T06:57:55;94872.41;;;24.69;43.26
61814;BME280;57055;-35.296;149.168;2023-02-07T07:00:24;94882.57;;;24.74;43.87
61814;BME280;57055;-35.296;149.168;2023-02-07T07:02:53;94886.42;;;24.56;44.18
61814;BME280;57055;-35.296;149.168;2023-02-07T07:05:23;94882.31;;;23.72;44.57
61814;BME280;57055;-35.296;149.168;2023-02-07T07:07:52;94887.30;;;23.94;45.21
61814;BME280;57055;-35.296;149.168;2023-02-07T07:10:21;94894.42;;;23.62;45.68
61814;BME280;57055;-35.296;149.168;2023-02-07T07:12:50;94902.63;;;23.73;45.29
61814;BME280;57055;-35.296;149.168;2023-02-07T07:15:20;94907.39;;;23.47;45.72
61814;BME280;57055;-35.296;149.168;2023-02-07T07:17:49;94912.07;;;23.25;46.05
61814;BME280;57055;-35.296;149.168;2023-02-07T07:20:18;94924.59;;;23.18;46.18
61814;BME280;57055;-35.296;149.168;2023-02-07T07:22:49;94932.53;;;23.06;46.80
61814;BME280;57055;-35.296;149.168;2023-02-07T07:25:18;94947.22;;;23.00;47.21
61814;BME280;57055;-35.296;149.168;2023-02-07T07:27:47;94953.00;;;22.59;47.92
61814;BME280;57055;-35.296;149.168;2023-02-07T07:30:16;94969.59;;;22.44;48.24
61814;BME280;57055;-35.296;149.168;2023-02-07T07:32:45;94958.04;;;22.06;49.02
61814;BME280;57055;-35.296;149.168;2023-02-07T07:35:15;94975.60;;;22.09;49.25
61814;BME280;57055;-35.296;149.168;2023-02-07T07:37:44;94982.78;;;21.88;49.59
61814;BME280;57055;-35.296;149.168;2023-02-07T07:40:12;94990.49;;;21.74;49.82
61814;BME280;57055;-35.296;149.168;2023-02-07T07:42:42;94997.53;;;21.46;50.39
61814;BME280;57055;-35.296;149.168;2023-02-07T07:45:10;95006.50;;;21.46;50.46
61814;BME280;57055;-35.296;149.168;2023-02-07T07:47:40;95010.45;;;21.45;50.97
61814;BME280;57055;-35.296;149.168;2023-02-07T07:50:08;95015.89;;;21.31;51.18
61814;BME280;57055;-35.296;149.168;2023-02-07T07:52:37;95025.76;;;21.32;51.16
61814;BME280;57055;-35.296;149.168;2023-02-07T07:55:07;95019.54;;;21.34;51.21
61814;BME280;57055;-35.296;149.168;2023-02-07T07:57:35;95025.54;;;21.25;51.11
61814;BME280;57055;-35.296;149.168;2023-02-07T08:00:05;95030.26;;;21.30;50.99
61814;BME280;57055;-35.296;149.168;2023-02-07T08:02:34;95048.19;;;21.03;51.00
61814;BME280;57055;-35.296;149.168;2023-02-07T08:05:04;95042.43;;;21.07;51.37
61814;BME280;57055;-35.296;149.168;2023-02-07T08:07:33;95046.06;;;21.04;51.44
61814;BME280;57055;-35.296;149.168;2023-02-07T08:10:02;95052.32;;;21.02;51.48
61814;BME280;57055;-35.296;149.168;2023-02-07T08:12:31;95055.07;;;20.79;51.74
61814;BME280;57055;-35.296;149.168;2023-02-07T08:15:01;95060.18;;;20.95;51.87
61814;BME280;57055;-35.296;149.168;2023-02-07T08:17:30;95069.99;;;20.70;51.99
61814;BME280;57055;-35.296;149.168;2023-02-07T08:20:00;95080.98;;;20.48;51.80
61814;BME280;57055;-35.296;149.168;2023-02-07T08:22:28;95079.65;;;20.66;52.27
61814;BME280;57055;-35.296;149.168;2023-02-07T08:24:58;95076.68;;;20.57;52.05
61814;BME280;57055;-35.296;149.168;2023-02-07T08:27:26;95075.98;;;20.55;51.80
61814;BME280;57055;-35.296;149.168;2023-02-07T08:29:55;95076.03;;;20.62;51.72
61814;BME280;57055;-35.296;149.168;2023-02-07T08:32:24;95075.73;;;20.56;52.01
61814;BME280;57055;-35.296;149.168;2023-02-07T08:34:53;95078.40;;;20.39;51.58
61814;BME280;57055;-35.296;149.168;2023-02-07T08:37:22;95080.49;;;20.33;51.67
61814;BME280;57055;-35.296;149.168;2023-02-07T08:39:50;95080.00;;;20.38;51.91
61814;BME280;57055;-35.296;149.168;2023-02-07T08:42:20;95085.07;;;20.63;52.13
61814;BME280;57055;-35.296;149.168;2023-02-07T08:44:50;95090.40;;;20.19;51.65
61814;BME280;57055;-35.296;149.168;2023-02-07T08:47:19;95094.69;;;20.20;51.67
61814;BME280;57055;-35.296;149.168;2023-02-07T08:49:47;95099.35;;;20.45;51.54
61814;BME280;57055;-35.296;149.168;2023-02-07T08:52:16;95104.12;;;20.17;51.56
61814;BME280;57055;-35.296;149.168;2023-02-07T08:54:44;95110.62;;;20.39;51.84
61814;BME280;57055;-35.296;149.168;2023-02-07T08:57:13;95117.96;;;20.30;51.22
61814;BME280;57055;-35.296;149.168;2023-02-07T08:59:42;95126.65;;;20.38;51.52
61814;BME280;57055;-35.296;149.168;2023-02-07T09:02:12;95124.29;;;20.55;51.44
61814;BME280;57055;-35.296;149.168;2023-02-07T09:04:41;95131.44;;;20.56;51.50
61814;BME280;57055;-35.296;149.168;2023-02-07T09:07:10;95137.56;;;20.12;51.67
61814;BME280;57055;-35.296;149.168;2023-02-07T09:09:40;95139.49;;;20.39;51.32
61814;BME280;57055;-35.296;149.168;2023-02-07T09:12:10;95140.61;;;20.17;51.36
61814;BME280;57055;-35.296;149.168;2023-02-07T09:14:40;95147.24;;;20.39;51.34
61814;BME280;57055;-35.296;149.168;2023-02-07T09:17:10;95142.36;;;20.37;51.15
61814;BME280;57055;-35.296;149.168;2023-02-07T09:19:39;95147.25;;;20.29;51.53
61814;BME280;57055;-35.296;149.168;2023-02-07T09:22:07;95148.49;;;20.29;51.40
61814;BME280;57055;-35.296;149.168;2023-02-07T09:24:37;95152.78;;;20.04;51.51
61814;BME280;57055;-35.296;149.168;2023-02-07T09:27:06;95159.41;;;20.11;51.40
61814;BME280;57055;-35.296;149.168;2023-02-07T09:29:36;95163.01;;;20.10;51.50
61814;BME280;57055;-35.296;149.168;2023-02-07T09:32:05;95162.81;;;20.53;51.62
61814;BME280;57055;-35.296;149.168;2023-02-07T09:34:34;95168.26;;;20.59;51.47
61814;BME280;57055;-35.296;149.168;2023-02-07T09:37:04;95173.50;;;20.25;51.67
61814;BME280;57055;-35.296;149.168;2023-02-07T09:39:36;95171.28;;;20.33;51.84
61814;BME280;57055;-35.296;149.168;2023-02-07T09:42:12;95173.36;;;20.11;51.89
61814;BME280;57055;-35.296;149.168;2023-02-07T09:44:54;95174.71;;;20.32;51.93
61814;BME280;57055;-35.296;149.168;2023-02-07T09:47:26;95178.36;;;20.15;52.18
61814;BME280;57055;-35.296;149.168;2023-02-07T09:49:59;95185.45;;;20.00;52.10
61814;BME280;57055;-35.296;149.168;2023-02-07T09:52:34;95183.17;;;20.08;52.06
61814;BME280;57055;-35.296;149.168;2023-02-07T09:55:07;95180.98;;;20.20;51.90
61814;BME280;57055;-35.296;149.168;2023-02-07T09:57:46;95186.41;;;20.44;51.97
61814;BME280;57055;-35.296;149.168;2023-02-07T10:00:22;95191.73;;;20.43;51.98
61814;BME280;57055;-35.296;149.168;2023-02-07T10:02:56;95197.89;;;20.30;52.17
61814;BME280;57055;-35.296;149.168;2023-02-07T10:05:31;95198.73;;;20.29;52.35
61814;BME280;57055;-35.296;149.168;2023-02-07T10:08:06;95201.96;;;19.96;52.20
61814;BME280;57055;-35.296;149.168;2023-02-07T10:10:40;95213.36;;;20.05;52.32
61814;BME280;57055;-35.296;149.168;2023-02-07T10:13:29;95215.91;;;19.97;52.22
61814;BME280;57055;-35.296;149.168;2023-02-07T10:16:14;95216.17;;;20.30;52.25
61814;BME280;57055;-35.296;149.168;2023-02-07T10:18:48;95218.82;;;20.30;52.25
61814;BME280;57055;-35.296;149.168;2023-02-07T10:21:28;95219.74;;;20.09;52.25
61814;BME280;57055;-35.296;149.168;2023-02-07T10:24:20;95224.64;;;20.12;52.21
61814;BME280;57055;-35.296;149.168;2023-02-07T10:26:54;95230.68;;;20.05;52.21
61814;BME280;57055;-35.296;149.168;2023-02-07T10:29:43;95230.12;;;19.94;52.39
61814;BME280;57055;-35.296;149.168;2023-02-07T10:32:22;95232.40;;;20.12;52.44
61814;BME280;57055;-35.296;149.168;2023-02-07T10:34:55;95233.17;;;20.05;52.42
61814;BME280;57055;-35.296;149.168;2023-02-07T10:37:30;95229.61;;;19.89;52.60
61814;BME280;57055;-35.296;149.168;2023-02-07T10:40:07;95232.03;;;19.92;52.63
61814;BME280;57055;-35.296;149.168;2023-02-07T10:42:41;95236.64;;;19.68;52.65
61814;BME280;57055;-35.296;149.168;2023-02-07T10:45:14;95234.61;;;19.83;52.64
61814;BME280;57055;-35.296;149.168;2023-02-07T10:47:43;95238.13;;;19.84;52.71
61814;BME280;57055;-35.296;149.168;2023-02-07T10:50:15;95242.44;;;19.90;52.59
61814;BME280;57055;-35.296;149.168;2023-02-07T10:52:49;95238.74;;;19.95;52.47
61814;BME280;57055;-35.296;149.168;2023-02-07T10:55:35;95238.01;;;19.68;52.60
61814;BME280;57055;-35.296;149.168;2023-02-07T10:58:05;95240.13;;;19.85;52.75
61814;BME280;57055;-35.296;149.168;2023-02-07T11:00:34;95240.13;;;19.50;52.99
61814;BME280;57055;-35.296;149.168;2023-02-07T11:03:04;95242.17;;;19.72;52.99
61814;BME280;57055;-35.296;149.168;2023-02-07T11:05:36;95244.19;;;19.77;53.00
61814;BME280;57055;-35.296;149.168;2023-02-07T11:08:17;95246.54;;;19.64;53.16
61814;BME280;57055;-35.296;149.168;2023-02-07T11:10:47;95242.77;;;19.81;53.41
61814;BME280;57055;-35.296;149.168;2023-02-07T11:13:19;95245.26;;;19.55;53.42
61814;BME280;57055;-35.296;149.168;2023-02-07T11:15:52;95245.89;;;19.61;53.36
61814;BME280;57055;-35.296;149.168;2023-02-07T11:18:30;95242.97;;;19.57;53.32
61814;BME280;57055;-35.296;149.168;2023-02-07T11:21:01;95242.24;;;19.58;53.39
61814;BME280;57055;-35.296;149.168;2023-02-07T11:23:30;95246.17;;;19.52;53.37
61814;BME280;57055;-35.296;149.168;2023-02-07T11:26:02;95248.60;;;19.81;53.39
61814;BME280;57055;-35.296;149.168;2023-02-07T11:28:32;95248.07;;;19.54;53.32
61814;BME280;57055;-35.296;149.168;2023-02-07T11:31:06;95245.89;;;19.45;53.49
61814;BME280;57055;-35.296;149.168;2023-02-07T11:33:36;95247.94;;;19.47;53.44
61814;BME280;57055;-35.296;149.168;2023-02-07T11:36:12;95245.80;;;19.48;53.49
61814;BME280;57055;-35.296;149.168;2023-02-07T11:38:50;95245.65;;;19.57;53.11
61814;BME280;57055;-35.296;149.168;2023-02-07T11:41:21;95246.09;;;19.83;52.99
61814;BME280;57055;-35.296;149.168;2023-02-07T11:43:59;95244.97;;;19.61;52.84
61814;BME280;57055;-35.296;149.168;2023-02-07T11:46:35;95246.47;;;19.49;53.08
61814;BME280;57055;-35.296;149.168;2023-02-07T11:49:06;95241.64;;;19.47;53.09
61814;BME280;57055;-35.296;149.168;2023-02-07T11:51:46;95239.23;;;19.74;53.03
61814;BME280;57055;-35.296;149.168;2023-02-07T11:54:18;95238.63;;;19.51;53.08
61814;BME280;57055;-35.296;149.168;2023-02-07T11:56:50;95242.14;;;19.44;53.05
61814;BME280;57055;-35.296;149.168;2023-02-07T11:59:21;95241.94;;;19.50;53.40
61814;BME280;57055;-35.296;149.168;2023-02-07T12:01:52;95236.90;;;19.49;53.30
61814;BME280;57055;-35.296;149.168;2023-02-07T12:04:27;95232.66;;;19.29;53.23
61814;BME280;57055;-35.296;149.168;2023-02-07T12:07:03;95228.32;;;19.22;53.34
61814;BME280;57055;-35.296;149.168;2023-02-07T12:09:39;95225.55;;;19.36;53.63
61814;BME280;57055;-35.296;149.168;2023-02-07T12:12:14;95221.93;;;19.48;53.49
61814;BME280;57055;-35.296;149.168;2023-02-07T12:14:47;95226.56;;;19.26;53.39
61814;BME280;57055;-35.296;149.168;2023-02-07T12:17:22;95223.04;;;19.22;53.50
61814;BME280;57055;-35.296;149.168;2023-02-07T12:19:56;95219.20;;;19.49;53.51
61814;BME280;57055;-35.296;149.168;2023-02-07T12:22:31;95219.75;;;19.43;53.70
61814;BME280;57055;-35.296;149.168;2023-02-07T12:25:17;95220.84;;;19.45;53.67
61814;BME280;57055;-35.296;149.168;2023-02-07T12:27:50;95215.14;;;19.14;53.71
61814;BME280;57055;-35.296;149.168;2023-02-07T12:30:27;95219.15;;;19.19;53.63
61814;BME280;57055;-35.296;149.168;2023-02-07T12:33:03;95220.07;;;19.22;53.39
61814;BME280;57055;-35.296;149.168;2023-02-07T12:35:42;95221.32;;;19.22;53.45
61814;BME280;57055;-35.296;149.168;2023-02-07T12:38:16;95219.91;;;19.21;53.45
61814;BME280;57055;-35.296;149.168;2023-02-07T12:40:52;95220.97;;;19.68;53.68
61814;BME280;57055;-35.296;149.168;2023-02-07T12:43:25;95223.06;;;19.41;53.72
61814;BME280;57055;-35.296;149.168;2023-02-07T12:46:09;95224.43;;;19.39;53.71
61814;BME280;57055;-35.296;149.168;2023-02-07T12:49:01;95219.98;;;19.09;53.82
61814;BME280;57055;-35.296;149.168;2023-02-07T12:51:40;95218.49;;;19.10;53.69
61814;BME280;57055;-35.296;149.168;2023-02-07T12:54:22;95219.40;;;19.38;53.75
61814;BME280;57055;-35.296;149.168;2023-02-07T12:57:02;95216.45;;;19.35;53.74